createdAt,value
2018-03-27T00:02:07.413Z,27.93
2018-03-27T00:04:34.149Z,28.77
2018-03-27T00:07:00.837Z,34.10
2018-03-27T00:09:27.521Z,30.30
2018-03-27T00:11:54.221Z,31.60
2018-03-27T00:14:20.913Z,32.43
2018-03-27T00:16:47.665Z,34.33
2018-03-27T00:19:14.337Z,33.13
2018-03-27T00:21:41.034Z,32.80
2018-03-27T00:24:07.737Z,39.07
2018-03-27T00:26:49.305Z,39.63
2018-03-27T00:29:21.842Z,34.17
2018-03-27T00:31:54.336Z,32.73
2018-03-27T00:34:26.805Z,31.13
2018-03-27T00:36:59.533Z,31.63
2018-03-27T00:39:32.069Z,33.57
2018-03-27T00:42:13.702Z,32.17
2018-03-27T00:44:40.382Z,34.23
2018-03-27T00:47:07.076Z,35.60
2018-03-27T00:49:33.776Z,34.37
2018-03-27T00:52:00.552Z,35.17
2018-03-27T00:54:27.246Z,36.23
2018-03-27T00:56:53.931Z,34.50
2018-03-27T00:59:20.656Z,35.40
2018-03-27T01:01:47.394Z,37.10
2018-03-27T01:04:14.068Z,32.67
2018-03-27T01:06:40.789Z,32.00
2018-03-27T01:09:07.494Z,30.83
2018-03-27T01:11:34.188Z,34.07
2018-03-27T01:14:00.877Z,29.27
2018-03-27T01:16:27.615Z,28.43
2018-03-27T01:18:54.379Z,30.73
2018-03-27T01:21:21.065Z,33.10
2018-03-27T01:23:47.877Z,32.90
2018-03-27T01:26:14.632Z,32.30
2018-03-27T01:28:41.310Z,34.80
2018-03-27T01:31:08.018Z,35.70
2018-03-27T01:33:34.786Z,32.83
2018-03-27T01:36:01.463Z,31.77
2018-03-27T01:38:28.166Z,27.13
2018-03-27T01:40:54.956Z,26.60
2018-03-27T01:43:21.650Z,31.50
2018-03-27T01:45:48.389Z,26.87
2018-03-27T01:48:15.244Z,29.30
2018-03-27T01:50:41.935Z,30.30
2018-03-27T01:53:08.626Z,26.90
2018-03-27T01:55:35.317Z,25.87
2018-03-27T01:58:02.030Z,22.40
2018-03-27T02:00:28.766Z,20.50
2018-03-27T02:02:55.454Z,21.63
2018-03-27T02:05:22.165Z,23.87
2018-03-27T02:07:48.932Z,27.93
2018-03-27T02:10:15.638Z,23.70
2018-03-27T02:12:48.117Z,24.10
2018-03-27T02:15:20.561Z,21.10
2018-03-27T02:17:53.041Z,20.50
2018-03-27T02:20:25.495Z,20.03
2018-03-27T02:22:57.042Z,21.50
2018-03-27T02:25:23.733Z,26.93
2018-03-27T02:27:50.438Z,25.80
2018-03-27T02:30:17.170Z,22.33
2018-03-27T02:32:43.979Z,19.70
2018-03-27T02:35:10.673Z,14.93
2018-03-27T02:37:37.361Z,23.37
2018-03-27T02:40:04.082Z,28.20
2018-03-27T02:42:30.773Z,19.30
2018-03-27T02:44:57.471Z,21.20
2018-03-27T02:47:24.158Z,19.50
2018-03-27T02:49:50.851Z,19.73
2018-03-27T02:52:17.553Z,18.13
2018-03-27T02:54:44.270Z,21.33
2018-03-27T02:57:10.970Z,20.20
2018-03-27T02:59:37.742Z,20.50
2018-03-27T03:02:04.454Z,18.63
2018-03-27T03:04:31.143Z,15.30
2018-03-27T03:06:57.827Z,17.23
2018-03-27T03:09:24.527Z,19.10
2018-03-27T03:11:51.229Z,20.50
2018-03-27T03:14:17.992Z,23.43
2018-03-27T03:16:44.677Z,20.40
2018-03-27T03:19:11.398Z,24.43
2018-03-27T03:21:38.074Z,22.57
2018-03-27T03:24:04.849Z,20.20
2018-03-27T03:26:31.549Z,18.97
2018-03-27T03:28:58.238Z,22.87
2018-03-27T03:31:24.922Z,24.10
2018-03-27T03:33:51.633Z,21.30
2018-03-27T03:36:18.296Z,17.60
2018-03-27T03:38:45.085Z,21.13
2018-03-27T03:41:11.786Z,20.30
2018-03-27T03:43:38.484Z,19.20
2018-03-27T03:46:05.193Z,19.20
2018-03-27T03:48:31.872Z,20.43
2018-03-27T03:50:58.653Z,19.20
2018-03-27T03:53:25.346Z,21.20
2018-03-27T03:55:52.049Z,20.27
2018-03-27T03:58:18.735Z,22.20
2018-03-27T04:00:45.438Z,21.37
2018-03-27T04:03:12.145Z,17.70
2018-03-27T04:05:38.869Z,20.70
2018-03-27T04:08:05.565Z,24.33
2018-03-27T04:10:32.261Z,27.90
2018-03-27T04:12:58.968Z,23.97
2018-03-27T04:15:25.662Z,17.87
2018-03-27T04:17:52.353Z,17.07
2018-03-27T04:20:19.125Z,18.00
2018-03-27T04:22:45.808Z,19.70
2018-03-27T04:25:12.509Z,32.93
2018-03-27T04:27:39.206Z,22.23
2018-03-27T04:30:05.919Z,24.03
2018-03-27T04:32:32.797Z,25.40
2018-03-27T04:34:59.469Z,26.97
2018-03-27T04:37:26.325Z,26.03
2018-03-27T04:39:53.025Z,21.33
2018-03-27T04:42:19.891Z,19.37
2018-03-27T04:44:46.903Z,24.10
2018-03-27T04:47:13.608Z,28.10
2018-03-27T04:49:40.310Z,28.43
2018-03-27T04:52:07.027Z,23.30
2018-03-27T04:54:33.706Z,21.83
2018-03-27T04:57:00.420Z,25.37
2018-03-27T04:59:27.111Z,23.93
2018-03-27T05:01:53.816Z,23.00
2018-03-27T05:04:20.505Z,23.07
2018-03-27T05:06:47.218Z,20.57
2018-03-27T05:09:13.918Z,20.87
2018-03-27T05:11:40.630Z,24.27
2018-03-27T05:14:07.317Z,26.10
2018-03-27T05:16:34.003Z,30.10
2018-03-27T05:19:00.702Z,28.80
2018-03-27T05:21:27.385Z,29.10
2018-03-27T05:23:54.148Z,24.47
2018-03-27T05:26:20.806Z,21.90
2018-03-27T05:28:47.481Z,21.80
2018-03-27T05:31:14.337Z,37.33
2018-03-27T05:33:41.041Z,38.63
2018-03-27T05:36:07.849Z,40.33
2018-03-27T05:38:34.538Z,31.10
2018-03-27T05:41:01.251Z,29.83
2018-03-27T05:43:27.938Z,30.40
2018-03-27T05:45:54.662Z,28.13
2018-03-27T05:48:21.332Z,31.90
2018-03-27T05:50:48.034Z,33.43
2018-03-27T05:53:14.743Z,37.17
2018-03-27T05:55:41.449Z,33.80
2018-03-27T05:58:08.175Z,33.30
2018-03-27T06:00:34.866Z,34.27
2018-03-27T06:03:01.658Z,34.67
2018-03-27T06:05:28.356Z,35.87
2018-03-27T06:07:55.073Z,33.77
2018-03-27T06:10:21.770Z,32.83
2018-03-27T06:12:48.513Z,34.43
2018-03-27T06:15:15.227Z,32.63
2018-03-27T06:17:41.912Z,31.83
2018-03-27T06:20:08.627Z,31.40
2018-03-27T06:22:35.312Z,31.40
2018-03-27T06:25:02.113Z,30.00
2018-03-27T06:27:28.991Z,32.63
2018-03-27T06:29:55.677Z,31.90
2018-03-27T06:32:22.388Z,32.53
2018-03-27T06:34:49.078Z,31.13
2018-03-27T06:37:15.853Z,32.67
2018-03-27T06:39:42.538Z,32.47
2018-03-27T06:42:09.369Z,31.27
2018-03-27T06:44:36.050Z,32.60
2018-03-27T06:47:02.779Z,31.33
2018-03-27T06:49:29.485Z,31.20
2018-03-27T06:51:56.170Z,30.67
2018-03-27T06:54:22.865Z,32.13
2018-03-27T06:56:49.658Z,33.23
2018-03-27T06:59:16.422Z,33.27
2018-03-27T07:01:43.137Z,30.80
2018-03-27T07:04:09.828Z,30.43
2018-03-27T07:06:36.627Z,30.73
2018-03-27T07:09:03.280Z,30.30
2018-03-27T07:11:29.962Z,32.07
2018-03-27T07:13:56.683Z,33.87
2018-03-27T07:16:23.345Z,33.87
2018-03-27T07:18:50.046Z,36.03
2018-03-27T07:21:16.781Z,33.90
2018-03-27T07:23:43.444Z,36.20
2018-03-27T07:26:10.293Z,37.07
2018-03-27T07:28:36.978Z,33.63
2018-03-27T07:31:03.694Z,36.83
2018-03-27T07:33:30.403Z,34.70
2018-03-27T07:35:57.089Z,34.07
2018-03-27T07:38:23.796Z,35.13
2018-03-27T07:40:50.507Z,34.13
2018-03-27T07:43:17.201Z,36.10
2018-03-27T07:45:43.880Z,34.53
2018-03-27T07:48:10.581Z,35.07
2018-03-27T07:50:37.266Z,31.13
2018-03-27T07:53:04.167Z,34.00
2018-03-27T07:55:30.849Z,32.03
2018-03-27T07:57:57.534Z,34.43
2018-03-27T08:00:24.248Z,32.47
2018-03-27T08:02:51.052Z,30.87
2018-03-27T08:05:17.840Z,32.90
2018-03-27T08:07:44.544Z,32.17
2018-03-27T08:10:11.239Z,32.40
2018-03-27T08:12:37.921Z,32.10
2018-03-27T08:15:04.639Z,30.67
2018-03-27T08:17:31.343Z,33.73
2018-03-27T08:19:58.063Z,32.60
2018-03-27T08:22:24.831Z,31.27
2018-03-27T08:24:51.593Z,31.80
2018-03-27T08:27:18.285Z,29.57
2018-03-27T08:29:45.054Z,27.40
2018-03-27T08:32:11.670Z,28.30
2018-03-27T08:34:38.386Z,25.83
2018-03-27T08:37:05.252Z,23.97
2018-03-27T08:39:32.018Z,24.67
2018-03-27T08:41:58.712Z,25.70
2018-03-27T08:44:25.540Z,25.20
2018-03-27T08:46:52.272Z,26.17
2018-03-27T08:49:18.957Z,26.20
2018-03-27T08:51:45.664Z,23.97
2018-03-27T08:54:12.422Z,23.67
2018-03-27T08:56:39.072Z,24.90
2018-03-27T08:59:05.766Z,22.40
2018-03-27T09:01:32.602Z,22.40
2018-03-27T09:03:59.322Z,24.13
2018-03-27T09:06:26.006Z,21.40
2018-03-27T09:08:52.722Z,21.27
2018-03-27T09:11:19.406Z,21.50
2018-03-27T09:13:46.134Z,21.90
2018-03-27T09:16:12.833Z,20.00
2018-03-27T09:18:39.532Z,21.20
2018-03-27T09:21:06.252Z,20.27
2018-03-27T09:23:32.950Z,21.30
2018-03-27T09:25:59.766Z,18.50
2018-03-27T09:28:26.452Z,19.53
2018-03-27T09:30:53.129Z,20.53
2018-03-27T09:33:19.834Z,16.83
2018-03-27T09:35:46.534Z,20.27
2018-03-27T09:38:13.373Z,18.20
2018-03-27T09:40:40.083Z,19.10
2018-03-27T09:43:06.788Z,17.53
2018-03-27T09:45:33.478Z,16.50
2018-03-27T09:48:00.244Z,16.60
2018-03-27T09:50:26.958Z,15.67
2018-03-27T09:52:53.746Z,16.20
2018-03-27T09:55:20.441Z,15.90
2018-03-27T09:57:47.246Z,14.83
2018-03-27T10:00:13.918Z,15.50
2018-03-27T10:02:40.828Z,14.20
2018-03-27T10:05:07.533Z,16.07
2018-03-27T10:07:34.418Z,13.03
2018-03-27T10:10:01.127Z,14.37
2018-03-27T10:12:27.807Z,13.37
2018-03-27T10:14:56.960Z,12.37
2018-03-27T10:17:23.869Z,13.50
2018-03-27T10:19:50.573Z,13.57
2018-03-27T10:22:17.289Z,14.60
2018-03-27T10:24:44.005Z,14.33
2018-03-27T10:27:11.039Z,14.00
2018-03-27T10:29:37.758Z,13.60
2018-03-27T10:32:04.474Z,15.40
2018-03-27T10:34:31.165Z,14.50
2018-03-27T10:36:57.889Z,13.50
2018-03-27T10:39:24.572Z,14.13
2018-03-27T10:41:51.300Z,13.47
2018-03-27T10:44:17.994Z,13.30
2018-03-27T10:46:44.751Z,13.60
2018-03-27T10:49:11.454Z,14.80
2018-03-27T10:51:38.169Z,13.60
2018-03-27T10:54:04.927Z,11.30
2018-03-27T10:56:31.697Z,10.37
2018-03-27T10:58:58.410Z,10.53
2018-03-27T11:01:25.154Z,11.07
2018-03-27T11:03:51.969Z,11.73
2018-03-27T11:06:18.621Z,11.03
2018-03-27T11:08:45.325Z,11.10
2018-03-27T11:11:12.058Z,9.80
2018-03-27T11:13:38.752Z,10.47
2018-03-27T11:16:05.497Z,9.97
2018-03-27T11:18:32.389Z,10.80
2018-03-27T11:20:59.095Z,11.90
2018-03-27T11:23:25.773Z,11.60
2018-03-27T11:25:52.594Z,16.33
2018-03-27T11:28:19.297Z,14.00
2018-03-27T11:30:45.981Z,15.30
2018-03-27T11:33:12.689Z,15.20
2018-03-27T11:35:39.378Z,14.87
2018-03-27T11:38:06.085Z,15.30
2018-03-27T11:40:32.814Z,14.93
2018-03-27T11:42:59.493Z,16.20
2018-03-27T11:45:26.358Z,14.87
2018-03-27T11:47:53.054Z,14.03
2018-03-27T11:50:19.741Z,13.50
2018-03-27T11:52:46.445Z,13.57
2018-03-27T11:55:13.149Z,14.57
2018-03-27T11:57:40.001Z,14.23
2018-03-27T12:00:06.781Z,15.20
2018-03-27T12:02:33.473Z,14.20
2018-03-27T12:05:00.318Z,15.50
2018-03-27T12:07:27.016Z,14.73
2018-03-27T12:09:53.706Z,16.50
2018-03-27T12:12:20.414Z,15.37
2018-03-27T12:14:47.127Z,14.20
2018-03-27T12:17:13.829Z,14.70
2018-03-27T12:19:40.513Z,14.20
2018-03-27T12:22:07.229Z,14.27
2018-03-27T12:24:33.936Z,13.67
2018-03-27T12:27:00.689Z,13.77
2018-03-27T12:29:27.369Z,13.60
2018-03-27T12:31:54.066Z,13.50
2018-03-27T12:34:20.759Z,14.83
2018-03-27T12:36:47.484Z,15.43
2018-03-27T12:39:14.157Z,14.27
2018-03-27T12:41:40.917Z,13.70
2018-03-27T12:44:07.614Z,15.23
2018-03-27T12:46:34.305Z,13.47
2018-03-27T12:49:01.027Z,14.97
2018-03-27T12:51:27.733Z,14.73
2018-03-27T12:53:54.444Z,14.30
2018-03-27T12:56:21.140Z,13.90
2018-03-27T12:58:47.952Z,15.07
2018-03-27T13:01:14.670Z,13.30
2018-03-27T13:03:41.374Z,14.63
2018-03-27T13:06:08.137Z,14.00
2018-03-27T13:08:34.818Z,14.93
2018-03-27T13:11:01.687Z,15.03
2018-03-27T13:13:28.449Z,16.20
2018-03-27T13:15:55.156Z,15.03
2018-03-27T13:18:21.833Z,13.67
2018-03-27T13:20:48.550Z,14.17
2018-03-27T13:23:15.403Z,15.37
2018-03-27T13:25:42.130Z,15.30
2018-03-27T13:28:08.821Z,17.93
2018-03-27T13:30:35.538Z,16.27
2018-03-27T13:33:02.233Z,16.20
2018-03-27T13:35:28.938Z,17.13
2018-03-27T13:37:55.633Z,14.37
2018-03-27T13:40:22.347Z,15.87
2018-03-27T13:42:49.037Z,16.83
2018-03-27T13:45:15.996Z,17.80
2018-03-27T13:47:42.681Z,18.87
2018-03-27T13:50:09.372Z,16.93
2018-03-27T13:52:36.071Z,20.33
2018-03-27T13:55:02.792Z,17.53
2018-03-27T13:57:29.624Z,18.50
2018-03-27T13:59:56.319Z,17.63
2018-03-27T14:02:23.175Z,17.80
2018-03-27T14:04:49.871Z,18.43
2018-03-27T14:07:16.651Z,19.00
2018-03-27T14:09:43.369Z,20.10
2018-03-27T14:12:10.086Z,19.63
2018-03-27T14:14:36.762Z,20.20
2018-03-27T14:17:03.461Z,20.10
2018-03-27T14:19:30.165Z,18.73
2018-03-27T14:21:56.908Z,21.10
2018-03-27T14:24:23.626Z,21.07
2018-03-27T14:26:50.342Z,21.97
2018-03-27T14:29:17.021Z,19.80
2018-03-27T14:31:43.950Z,21.10
2018-03-27T14:34:10.673Z,19.53
2018-03-27T14:36:37.531Z,20.40
2018-03-27T14:39:04.253Z,22.00
2018-03-27T14:41:30.997Z,19.30
2018-03-27T14:43:57.718Z,21.60
2018-03-27T14:46:24.649Z,20.50
2018-03-27T14:48:51.352Z,22.33
2018-03-27T14:51:18.055Z,19.30
2018-03-27T14:53:44.770Z,21.70
2018-03-27T14:56:11.484Z,23.03
2018-03-27T14:58:38.230Z,20.70
2018-03-27T15:01:04.931Z,21.23
2018-03-27T15:03:31.750Z,22.57
2018-03-27T15:05:58.435Z,21.00
2018-03-27T15:08:25.149Z,20.80
2018-03-27T15:10:51.867Z,21.73
2018-03-27T15:13:18.598Z,24.30
2018-03-27T15:15:45.349Z,22.50
2018-03-27T15:18:12.056Z,22.50
2018-03-27T15:20:38.886Z,20.97
2018-03-27T15:23:05.573Z,23.00
2018-03-27T15:25:32.317Z,21.57
2018-03-27T15:27:59.009Z,21.40
2018-03-27T15:30:25.745Z,22.27
2018-03-27T15:32:52.438Z,21.87
2018-03-27T15:35:19.154Z,22.97
2018-03-27T15:37:45.842Z,23.93
2018-03-27T15:40:12.602Z,22.50
2018-03-27T15:42:39.317Z,22.53
2018-03-27T15:45:06.005Z,23.47
2018-03-27T15:47:32.769Z,21.43
2018-03-27T15:49:59.584Z,22.17
2018-03-27T15:52:26.310Z,22.40
2018-03-27T15:54:53.002Z,22.10
2018-03-27T15:57:19.684Z,20.30
2018-03-27T15:59:46.405Z,20.93
2018-03-27T16:02:13.152Z,22.10
2018-03-27T16:04:40.061Z,20.43
2018-03-27T16:07:06.755Z,19.57
2018-03-27T16:09:33.469Z,20.43
2018-03-27T16:12:00.186Z,19.47
2018-03-27T16:14:26.858Z,16.70
2018-03-27T16:16:53.570Z,17.90
2018-03-27T16:19:20.294Z,19.30
2018-03-27T16:21:46.981Z,16.27
2018-03-27T16:24:13.881Z,19.03
2018-03-27T16:26:40.579Z,19.63
2018-03-27T16:29:07.293Z,17.00
2018-03-27T16:31:34.050Z,17.70
2018-03-27T16:34:00.740Z,19.37
2018-03-27T16:36:27.447Z,17.90
2018-03-27T16:38:54.143Z,18.73
2018-03-27T16:41:20.877Z,17.90
2018-03-27T16:43:47.650Z,15.50
2018-03-27T16:46:14.388Z,16.30
2018-03-27T16:48:41.069Z,16.53
2018-03-27T16:51:07.777Z,16.33
2018-03-27T16:53:34.488Z,16.13
2018-03-27T16:56:01.256Z,12.67
2018-03-27T16:58:27.897Z,11.17
2018-03-27T17:00:54.594Z,12.47
2018-03-27T17:03:21.357Z,12.20
2018-03-27T17:05:48.062Z,11.70
2018-03-27T17:08:14.763Z,12.07
2018-03-27T17:10:41.449Z,10.67
2018-03-27T17:13:08.157Z,11.23
2018-03-27T17:15:34.857Z,10.90
2018-03-27T17:18:01.539Z,8.37
2018-03-27T17:20:28.250Z,8.60
2018-03-27T17:22:54.936Z,9.00
2018-03-27T17:25:21.630Z,9.50
2018-03-27T17:27:48.322Z,9.63
2018-03-27T17:30:15.054Z,9.87
2018-03-27T17:32:41.741Z,9.43
2018-03-27T17:35:08.454Z,9.40
2018-03-27T17:37:35.140Z,9.70
2018-03-27T17:40:01.846Z,10.00
2018-03-27T17:42:28.572Z,11.47
2018-03-27T17:44:55.348Z,11.70
2018-03-27T17:47:22.121Z,11.90
2018-03-27T17:49:48.814Z,12.57
2018-03-27T17:52:15.537Z,13.20
2018-03-27T17:54:42.249Z,11.43
2018-03-27T17:57:08.974Z,14.93
2018-03-27T17:59:35.710Z,11.97
2018-03-27T18:02:02.448Z,11.83
2018-03-27T18:04:29.189Z,10.40
2018-03-27T18:06:55.881Z,11.47
2018-03-27T18:09:22.607Z,11.57
2018-03-27T18:11:49.318Z,12.07
2018-03-27T18:14:16.023Z,11.33
2018-03-27T18:16:42.718Z,12.17
2018-03-27T18:19:09.438Z,10.77
2018-03-27T18:21:36.126Z,12.10
2018-03-27T18:24:02.839Z,11.50
2018-03-27T18:26:29.536Z,11.17
2018-03-27T18:28:56.309Z,12.27
2018-03-27T18:31:23.025Z,13.90
2018-03-27T18:33:49.765Z,12.73
2018-03-27T18:36:16.569Z,13.97
2018-03-27T18:38:43.267Z,14.40
2018-03-27T18:41:10.058Z,16.40
2018-03-27T18:43:36.779Z,16.10
2018-03-27T18:46:03.482Z,16.13
2018-03-27T18:48:30.202Z,16.30
2018-03-27T18:50:56.924Z,17.90
2018-03-27T18:53:23.635Z,19.20
2018-03-27T18:55:50.328Z,17.83
2018-03-27T18:58:17.065Z,19.00
2018-03-27T19:00:43.784Z,19.33
2018-03-27T19:03:10.505Z,20.20
2018-03-27T19:05:37.240Z,18.77
2018-03-27T19:08:03.972Z,22.23
2018-03-27T19:10:30.655Z,22.80
2018-03-27T19:12:57.413Z,21.90
2018-03-27T19:15:24.152Z,24.23
2018-03-27T19:17:50.831Z,21.57
2018-03-27T19:20:17.660Z,22.80
2018-03-27T19:22:44.363Z,25.20
2018-03-27T19:25:11.110Z,22.10
2018-03-27T19:27:37.876Z,26.40
2018-03-27T19:30:04.613Z,25.50
2018-03-27T19:32:31.293Z,23.00
2018-03-27T19:34:58.034Z,24.53
2018-03-27T19:37:24.753Z,26.60
2018-03-27T19:39:51.410Z,25.97
2018-03-27T19:42:18.100Z,25.93
2018-03-27T19:44:44.803Z,26.00
2018-03-27T19:47:11.524Z,27.67
2018-03-27T19:49:38.239Z,26.57
2018-03-27T19:52:04.991Z,27.57
2018-03-27T19:54:31.676Z,25.60
2018-03-27T19:56:58.374Z,28.37
2018-03-27T19:59:25.070Z,27.43
2018-03-27T20:01:51.791Z,27.23
2018-03-27T20:04:18.530Z,31.90
2018-03-27T20:06:45.320Z,31.30
2018-03-27T20:09:12.068Z,29.23
2018-03-27T20:11:38.773Z,31.73
2018-03-27T20:14:05.469Z,28.00
2018-03-27T20:16:32.195Z,30.23
2018-03-27T20:18:58.923Z,29.40
2018-03-27T20:21:25.750Z,29.77
2018-03-27T20:23:52.454Z,28.60
2018-03-27T20:26:19.221Z,28.90
2018-03-27T20:28:45.907Z,28.43
2018-03-27T20:31:12.630Z,29.37
2018-03-27T20:33:39.358Z,32.67
2018-03-27T20:36:06.047Z,32.17
2018-03-27T20:38:32.772Z,29.17
2018-03-27T20:40:59.471Z,30.80
2018-03-27T20:43:26.185Z,31.30
2018-03-27T20:45:52.950Z,29.20
2018-03-27T20:48:19.667Z,30.40
2018-03-27T20:50:46.395Z,30.93
2018-03-27T20:53:13.110Z,32.93
2018-03-27T20:55:39.798Z,30.37
2018-03-27T20:58:06.528Z,34.13
2018-03-27T21:00:33.226Z,32.67
2018-03-27T21:03:00.109Z,31.63
2018-03-27T21:05:27.015Z,30.50
2018-03-27T21:07:53.728Z,33.10
2018-03-27T21:10:20.529Z,35.70
2018-03-27T21:12:47.264Z,33.17
2018-03-27T21:15:13.939Z,33.53
2018-03-27T21:17:40.669Z,32.80
2018-03-27T21:20:07.382Z,33.57
2018-03-27T21:22:34.106Z,35.30
2018-03-27T21:25:00.833Z,33.27
2018-03-27T21:27:27.552Z,37.03
2018-03-27T21:29:54.239Z,34.10
2018-03-27T21:32:20.949Z,33.63
2018-03-27T21:34:47.664Z,34.90
2018-03-27T21:37:14.364Z,35.13
2018-03-27T21:39:41.091Z,36.20
2018-03-27T21:42:07.791Z,38.57
2018-03-27T21:44:34.534Z,42.07
2018-03-27T21:47:01.237Z,41.10
2018-03-27T21:49:27.942Z,39.43
2018-03-27T21:51:54.657Z,37.13
2018-03-27T21:54:21.357Z,40.73
2018-03-27T21:56:48.121Z,37.70
2018-03-27T21:59:14.861Z,40.70
2018-03-27T22:01:41.546Z,37.53
2018-03-27T22:04:08.277Z,37.20
2018-03-27T22:06:34.955Z,36.97
2018-03-27T22:09:01.680Z,38.93
2018-03-27T22:11:28.405Z,36.03
2018-03-27T22:13:55.106Z,38.90
2018-03-27T22:16:21.816Z,38.83
2018-03-27T22:18:48.513Z,37.70
2018-03-27T22:21:15.217Z,35.43
2018-03-27T22:23:41.901Z,37.60
2018-03-27T22:26:08.672Z,36.53
2018-03-27T22:28:35.392Z,37.43
2018-03-27T22:31:02.085Z,37.07
2018-03-27T22:33:28.782Z,36.57
2018-03-27T22:35:55.473Z,37.07
2018-03-27T22:38:22.183Z,40.60
2018-03-27T22:40:48.873Z,39.57
2018-03-27T22:43:15.610Z,39.00
2018-03-27T22:45:42.285Z,37.67
2018-03-27T22:48:08.973Z,39.40
2018-03-27T22:50:35.685Z,37.67
2018-03-27T22:53:02.386Z,35.77
2018-03-27T22:55:29.092Z,33.13
2018-03-27T22:57:55.776Z,36.50
2018-03-27T23:00:22.471Z,34.33
2018-03-27T23:02:49.170Z,35.93
2018-03-27T23:05:15.869Z,36.20
2018-03-27T23:07:42.570Z,37.37
2018-03-27T23:10:09.277Z,37.60
2018-03-27T23:12:35.984Z,36.80
2018-03-27T23:15:02.669Z,36.40
2018-03-27T23:17:29.478Z,33.87
2018-03-27T23:19:56.161Z,35.07
2018-03-27T23:22:28.762Z,35.27
2018-03-27T23:24:55.488Z,34.83
2018-03-27T23:27:22.197Z,32.77
2018-03-27T23:29:48.884Z,34.30
2018-03-27T23:32:15.598Z,31.73
2018-03-27T23:34:43.165Z,34.13
2018-03-27T23:37:09.853Z,32.67
2018-03-27T23:39:36.689Z,31.90
2018-03-27T23:42:03.391Z,32.13
2018-03-27T23:44:30.071Z,30.60
2018-03-27T23:46:56.767Z,33.00
2018-03-27T23:49:23.465Z,31.70
2018-03-27T23:51:50.158Z,33.43
2018-03-27T23:54:16.890Z,32.30
2018-03-27T23:56:43.581Z,35.13
2018-03-27T23:59:10.261Z,34.40
